createdAt,value
2023-03-12T00:02:20.873Z,99317.56
2023-03-12T00:05:09.280Z,99315.09
2023-03-12T00:07:51.228Z,99310.88
2023-03-12T00:10:34.581Z,99317.72
2023-03-12T00:13:26.295Z,99310.19
2023-03-12T00:16:23.838Z,99317.09
2023-03-12T00:19:09.773Z,99320.53
2023-03-12T00:21:59.057Z,99314.69
2023-03-12T00:24:58.999Z,99312.16
2023-03-12T00:28:00.694Z,99310.53
2023-03-12T00:30:34.064Z,99311.41
2023-03-12T00:33:08.910Z,99299.72
2023-03-12T00:36:09.983Z,99313.94
2023-03-12T00:38:42.000Z,99321.50
2023-03-12T00:41:21.824Z,99317.25
2023-03-12T00:43:57.053Z,99306.13
2023-03-12T00:46:51.926Z,99300.16
2023-03-12T00:49:28.990Z,99314.50
2023-03-12T00:52:10.972Z,99307.69
2023-03-12T00:54:58.643Z,99311.06
2023-03-12T00:57:33.527Z,99308.59
2023-03-12T01:00:20.788Z,99314.44
2023-03-12T01:03:12.725Z,99310.28
2023-03-12T01:06:06.375Z,99307.91
2023-03-12T01:08:41.451Z,99312.28
2023-03-12T01:11:33.426Z,99314.75
2023-03-12T01:14:48.441Z,99313.94
2023-03-12T01:17:19.475Z,99308.03
2023-03-12T01:20:01.334Z,99307.22
2023-03-12T01:22:40.783Z,99300.41
2023-03-12T01:25:26.803Z,99302.91
2023-03-12T01:28:05.573Z,99303.72
2023-03-12T01:30:46.913Z,99307.84
2023-03-12T01:33:28.851Z,99298.59
2023-03-12T01:36:10.042Z,99311.22
2023-03-12T01:38:50.061Z,99306.06
2023-03-12T01:41:30.132Z,99312.72
2023-03-12T01:44:03.116Z,99306.72
2023-03-12T01:46:47.041Z,99300.69
2023-03-12T01:49:26.126Z,99306.47
2023-03-12T01:52:23.798Z,99304.75
2023-03-12T01:55:29.119Z,99304.66
2023-03-12T01:58:51.187Z,99295.19
2023-03-12T02:01:48.846Z,99288.38
2023-03-12T02:04:45.717Z,99292.63
2023-03-12T02:07:20.068Z,99288.31
2023-03-12T02:10:07.335Z,99283.22
2023-03-12T02:12:43.509Z,99282.41
2023-03-12T02:15:28.143Z,99270.69
2023-03-12T02:18:09.048Z,99283.31
2023-03-12T02:21:06.984Z,99274.84
2023-03-12T02:23:58.997Z,99273.22
2023-03-12T02:26:56.088Z,99275.75
2023-03-12T02:29:38.593Z,99277.41
2023-03-12T02:32:32.931Z,99280.78
2023-03-12T02:35:13.843Z,99272.31
2023-03-12T02:38:00.894Z,99262.06
2023-03-12T02:40:49.592Z,99269.63
2023-03-12T02:43:35.017Z,99257.81
2023-03-12T02:46:15.810Z,99261.03
2023-03-12T02:49:13.856Z,99262.56
2023-03-12T02:52:00.913Z,99252.38
2023-03-12T02:55:00.314Z,99253.94
2023-03-12T02:57:42.802Z,99247.06
2023-03-12T03:00:29.080Z,99255.50
2023-03-12T03:03:19.797Z,99256.31
2023-03-12T03:06:05.482Z,99262.97
2023-03-12T03:08:51.450Z,99263.78
2023-03-12T03:11:27.829Z,99261.28
2023-03-12T03:14:12.279Z,99259.56
2023-03-12T03:17:08.283Z,99263.84
2023-03-12T03:19:52.861Z,99256.22
2023-03-12T03:22:25.450Z,99253.66
2023-03-12T03:25:07.336Z,99234.81
2023-03-12T03:27:44.341Z,99238.88
2023-03-12T03:30:17.110Z,99232.78
2023-03-12T03:33:22.745Z,99232.81
2023-03-12T03:36:12.950Z,99237.06
2023-03-12T03:38:51.480Z,99239.50
2023-03-12T03:41:39.911Z,99238.66
2023-03-12T03:44:23.691Z,99231.69
2023-03-12T03:46:55.823Z,99229.91
2023-03-12T03:49:46.457Z,99215.50
2023-03-12T03:52:33.546Z,99224.66
2023-03-12T03:55:34.259Z,99219.59
2023-03-12T03:58:11.884Z,99217.91
2023-03-12T04:00:45.918Z,99226.47
2023-03-12T04:03:28.540Z,99231.50
2023-03-12T04:06:32.204Z,99231.50
2023-03-12T04:09:33.273Z,99234.91
2023-03-12T04:12:06.967Z,99215.53
2023-03-12T04:14:51.095Z,99232.06
2023-03-12T04:17:28.946Z,99226.84
2023-03-12T04:20:00.539Z,99227.72
2023-03-12T04:22:46.296Z,99229.41
2023-03-12T04:25:33.014Z,99227.63
2023-03-12T04:28:04.724Z,99225.84
2023-03-12T04:31:03.250Z,99233.38
2023-03-12T04:34:04.019Z,99233.19
2023-03-12T04:36:55.092Z,99228.84
2023-03-12T04:39:46.958Z,99220.34
2023-03-12T04:42:33.889Z,99226.22
2023-03-12T04:45:07.195Z,99220.22
2023-03-12T04:48:08.924Z,99215.88
2023-03-12T04:50:42.528Z,99226.97
2023-03-12T04:53:37.281Z,99215.16
2023-03-12T04:56:52.375Z,99215.22
2023-03-12T04:59:30.300Z,99215.13
2023-03-12T05:02:15.570Z,99219.28
2023-03-12T05:04:58.511Z,99208.31
2023-03-12T05:07:35.905Z,99192.94
2023-03-12T05:10:15.740Z,99198.78
2023-03-12T05:12:55.121Z,99197.75
2023-03-12T05:15:29.601Z,99196.00
2023-03-12T05:18:11.115Z,99196.94
2023-03-12T05:21:10.231Z,99196.13
2023-03-12T05:23:50.361Z,99200.41
2023-03-12T05:26:32.662Z,99198.56
2023-03-12T05:29:35.992Z,99195.91
2023-03-12T05:32:34.145Z,99196.59
2023-03-12T05:35:15.561Z,99194.78
2023-03-12T05:37:58.095Z,99192.06
2023-03-12T05:40:33.810Z,99193.47
2023-03-12T05:43:07.388Z,99191.63
2023-03-12T05:46:25.538Z,99195.88
2023-03-12T05:49:15.158Z,99198.34
2023-03-12T05:51:47.672Z,99200.78
2023-03-12T05:54:38.529Z,99208.28
2023-03-12T05:57:22.722Z,99203.13
2023-03-12T06:00:05.636Z,99201.38
2023-03-12T06:02:53.603Z,99197.91
2023-03-12T06:05:40.229Z,99192.00
2023-03-12T06:08:34.835Z,99195.41
2023-03-12T06:11:35.396Z,99200.44
2023-03-12T06:14:44.911Z,99208.00
2023-03-12T06:17:25.564Z,99203.88
2023-03-12T06:20:27.941Z,99202.34
2023-03-12T06:23:19.743Z,99203.19
2023-03-12T06:26:00.727Z,99217.53
2023-03-12T06:28:43.166Z,99209.97
2023-03-12T06:31:15.614Z,99201.78
2023-03-12T06:33:56.141Z,99203.75
2023-03-12T06:36:47.934Z,99199.69
2023-03-12T06:39:21.717Z,99203.06
2023-03-12T06:42:16.609Z,99196.19
2023-03-12T06:44:50.180Z,99202.94
2023-03-12T06:47:48.002Z,99201.94
2023-03-12T06:50:39.288Z,99203.44
2023-03-12T06:54:07.798Z,99185.22
2023-03-12T06:56:53.580Z,99187.34
2023-03-12T06:59:52.564Z,99184.69
2023-03-12T07:02:41.938Z,99173.63
2023-03-12T07:05:12.965Z,99178.41
2023-03-12T07:07:58.454Z,99170.66
2023-03-12T07:10:32.728Z,99164.28
2023-03-12T07:13:04.824Z,99177.69
2023-03-12T07:15:45.346Z,99175.06
2023-03-12T07:18:23.959Z,99173.28
2023-03-12T07:21:11.407Z,99177.47
2023-03-12T07:23:56.022Z,99178.38
2023-03-12T07:26:37.789Z,99164.94
2023-03-12T07:29:30.120Z,99173.28
2023-03-12T07:32:10.648Z,99179.84
2023-03-12T07:34:58.485Z,99174.53
2023-03-12T07:37:54.557Z,99181.78
2023-03-12T07:40:39.231Z,99174.72
2023-03-12T07:43:30.483Z,99173.63
2023-03-12T07:46:23.445Z,99182.91
2023-03-12T07:49:12.210Z,99179.44
2023-03-12T07:51:44.715Z,99170.81
2023-03-12T07:54:42.254Z,99158.69
2023-03-12T07:57:25.769Z,99162.72
2023-03-12T08:00:21.621Z,99170.22
2023-03-12T08:03:14.256Z,99166.75
2023-03-12T08:06:02.299Z,99167.50
2023-03-12T08:08:49.906Z,99175.84
2023-03-12T08:11:31.878Z,99171.38
2023-03-12T08:14:06.490Z,99176.44
2023-03-12T08:16:45.098Z,99178.84
2023-03-12T08:19:23.636Z,99172.75
2023-03-12T08:21:56.162Z,99179.31
2023-03-12T08:24:27.090Z,99181.75
2023-03-12T08:26:58.069Z,99179.00
2023-03-12T08:29:30.832Z,99179.66
2023-03-12T08:32:12.550Z,99187.34
2023-03-12T08:34:43.178Z,99186.53
2023-03-12T08:37:40.399Z,99179.81
2023-03-12T08:40:19.216Z,99180.66
2023-03-12T08:43:10.899Z,99161.28
2023-03-12T08:45:50.680Z,99175.22
2023-03-12T08:48:37.406Z,99176.94
2023-03-12T08:51:25.600Z,99167.66
2023-03-12T08:54:02.176Z,99172.59
2023-03-12T08:56:51.874Z,99156.16
2023-03-12T08:59:29.147Z,99166.06
2023-03-12T09:02:03.302Z,99157.31
2023-03-12T09:04:44.042Z,99167.25
2023-03-12T09:07:38.052Z,99152.19
2023-03-12T09:10:09.839Z,99148.88
2023-03-12T09:12:56.627Z,99155.66
2023-03-12T09:15:33.358Z,99155.03
2023-03-12T09:18:20.857Z,99157.41
2023-03-12T09:21:13.270Z,99165.72
2023-03-12T09:23:56.897Z,99158.81
2023-03-12T09:26:32.437Z,99156.88
2023-03-12T09:29:18.976Z,99166.78
2023-03-12T09:31:58.632Z,99161.25
2023-03-12T09:34:41.560Z,99157.41
2023-03-12T09:37:16.425Z,99158.88
2023-03-12T09:39:51.817Z,99169.72
2023-03-12T09:42:32.590Z,99160.88
2023-03-12T09:45:15.778Z,99163.44
2023-03-12T09:47:58.596Z,99172.34
2023-03-12T09:50:47.132Z,99167.91
2023-03-12T09:53:36.523Z,99174.66
2023-03-12T09:56:18.712Z,99182.31
2023-03-12T09:58:55.000Z,99184.78
2023-03-12T10:01:45.562Z,99184.56
2023-03-12T10:04:59.851Z,99162.06
2023-03-12T10:07:50.671Z,99172.81
2023-03-12T10:10:57.610Z,99180.59
2023-03-12T10:14:00.136Z,99175.66
2023-03-12T10:16:53.041Z,99177.06
2023-03-12T10:20:00.315Z,99183.81
2023-03-12T10:22:56.187Z,99187.31
2023-03-12T10:26:04.027Z,99190.66
2023-03-12T10:28:42.667Z,99204.03
2023-03-12T10:31:33.861Z,99192.03
2023-03-12T10:34:23.399Z,99201.97
2023-03-12T10:37:08.105Z,99208.53
2023-03-12T10:39:50.118Z,99197.94
2023-03-12T10:42:36.242Z,99192.31
2023-03-12T10:45:35.091Z,99192.09
2023-03-12T10:48:13.370Z,99192.00
2023-03-12T10:51:06.056Z,99185.16
2023-03-12T10:54:00.796Z,99182.34
2023-03-12T10:56:53.093Z,99182.75
2023-03-12T10:59:53.736Z,99172.34
2023-03-12T11:02:37.976Z,99187.56
2023-03-12T11:05:30.941Z,99174.78
2023-03-12T11:08:18.229Z,99185.72
2023-03-12T11:10:58.741Z,99189.88
2023-03-12T11:13:44.989Z,99189.59
2023-03-12T11:16:32.092Z,99187.75
2023-03-12T11:19:07.695Z,99188.38
2023-03-12T11:22:01.247Z,99200.19
2023-03-12T11:24:47.133Z,99193.50
2023-03-12T11:27:39.734Z,99197.03
2023-03-12T11:30:21.410Z,99207.88
2023-03-12T11:33:06.658Z,99207.63
2023-03-12T11:36:26.224Z,99197.94
2023-03-12T11:39:20.502Z,99186.94
2023-03-12T11:42:21.370Z,99183.56
2023-03-12T11:45:14.641Z,99188.38
2023-03-12T11:48:14.880Z,99192.50
2023-03-12T11:51:04.222Z,99189.72
2023-03-12T11:54:20.885Z,99201.66
2023-03-12T11:57:07.361Z,99194.59
2023-03-12T12:00:13.156Z,99181.16
2023-03-12T12:03:50.577Z,99180.34
2023-03-12T12:06:50.531Z,99179.84
2023-03-12T12:09:38.095Z,99167.94
2023-03-12T12:12:31.630Z,99166.97
2023-03-12T12:15:22.911Z,99163.66
2023-03-12T12:18:41.087Z,99147.06
2023-03-12T12:21:46.814Z,99138.84
2023-03-12T12:24:51.965Z,99142.31
2023-03-12T12:27:28.660Z,99124.13
2023-03-12T12:30:43.781Z,99124.81
2023-03-12T12:34:04.904Z,99114.03
2023-03-12T12:36:54.204Z,99116.28
2023-03-12T12:39:47.224Z,99127.53
2023-03-12T12:42:30.620Z,99114.94
2023-03-12T12:45:18.267Z,99108.69
2023-03-12T12:48:01.088Z,99102.53
2023-03-12T12:51:01.993Z,99106.47
2023-03-12T12:54:07.056Z,99112.19
2023-03-12T12:57:03.201Z,99102.09
2023-03-12T12:59:51.149Z,99097.22
2023-03-12T13:02:42.640Z,99106.78
2023-03-12T13:05:31.020Z,99117.69
2023-03-12T13:09:17.007Z,99107.34
2023-03-12T13:12:03.793Z,99102.13
2023-03-12T13:14:47.760Z,99098.41
2023-03-12T13:18:10.094Z,99105.84
2023-03-12T13:21:30.200Z,99092.56
2023-03-12T13:24:46.299Z,99104.31
2023-03-12T13:27:28.717Z,99100.06
2023-03-12T13:30:56.903Z,99107.19
2023-03-12T13:33:45.707Z,99092.28
2023-03-12T13:36:40.676Z,99077.94
2023-03-12T13:39:32.542Z,99070.91
2023-03-12T13:42:49.308Z,99055.16
2023-03-12T13:46:08.966Z,99057.78
2023-03-12T13:48:48.480Z,99060.00
2023-03-12T13:51:37.227Z,99067.59
2023-03-12T13:54:35.010Z,99064.25
2023-03-12T13:57:34.065Z,99057.84
2023-03-12T14:00:20.280Z,99051.47
2023-03-12T14:03:17.890Z,99050.28
2023-03-12T14:06:07.839Z,99058.81
2023-03-12T14:09:24.685Z,99058.09
2023-03-12T14:12:11.686Z,99035.31
2023-03-12T14:15:26.043Z,99044.78
2023-03-12T14:18:23.877Z,99035.28
2023-03-12T14:21:12.097Z,99045.69
2023-03-12T14:23:54.779Z,99040.66
2023-03-12T14:26:57.026Z,99038.81
2023-03-12T14:29:42.870Z,99042.50
2023-03-12T14:32:30.960Z,99036.59
2023-03-12T14:35:26.227Z,99046.09
2023-03-12T14:38:24.275Z,99050.25
2023-03-12T14:41:06.564Z,99047.22
2023-03-12T14:43:38.367Z,99040.75
2023-03-12T14:46:29.665Z,99029.25
2023-03-12T14:49:23.087Z,99027.63
2023-03-12T14:52:31.044Z,99012.59
2023-03-12T14:55:27.464Z,99019.00
2023-03-12T14:58:23.738Z,99010.94
2023-03-12T15:01:07.668Z,99008.97
2023-03-12T15:03:54.418Z,99016.50
2023-03-12T15:06:51.324Z,99016.97
2023-03-12T15:09:34.194Z,99022.28
2023-03-12T15:12:28.982Z,99031.19
2023-03-12T15:15:28.742Z,99025.88
2023-03-12T15:18:04.144Z,99027.03
2023-03-12T15:20:45.236Z,99027.97
2023-03-12T15:23:48.246Z,99010.91
2023-03-12T15:26:38.480Z,99019.88
2023-03-12T15:29:30.429Z,99022.47
2023-03-12T15:32:04.061Z,99022.34
2023-03-12T15:34:49.214Z,99022.34
2023-03-12T15:37:56.991Z,99008.78
2023-03-12T15:41:00.714Z,99008.63
2023-03-12T15:43:44.912Z,99005.88
2023-03-12T15:46:31.158Z,99006.56
2023-03-12T15:49:30.157Z,99010.41
2023-03-12T15:52:34.419Z,99019.97
2023-03-12T15:55:26.955Z,99027.47
2023-03-12T15:58:27.967Z,99032.66
2023-03-12T16:01:28.526Z,99014.63
2023-03-12T16:04:14.161Z,99053.63
2023-03-12T16:07:00.723Z,99031.75
2023-03-12T16:09:48.259Z,99022.44
2023-03-12T16:12:35.140Z,99036.00
2023-03-12T16:16:13.861Z,99029.41
2023-03-12T16:18:59.319Z,99033.75
2023-03-12T16:21:50.062Z,99038.00
2023-03-12T16:24:22.647Z,99030.44
2023-03-12T16:26:59.910Z,99027.84
2023-03-12T16:29:54.935Z,99021.19
2023-03-12T16:32:55.994Z,99010.81
2023-03-12T16:36:12.389Z,99018.81
2023-03-12T16:38:52.887Z,99021.63
2023-03-12T16:41:50.320Z,99022.78
2023-03-12T16:44:32.412Z,99013.44
2023-03-12T16:47:08.705Z,99030.78
2023-03-12T16:49:47.867Z,99037.00
2023-03-12T16:52:38.460Z,99049.34
2023-03-12T16:55:56.503Z,99039.41
2023-03-12T16:58:30.485Z,99038.34
2023-03-12T17:01:01.483Z,99046.13
2023-03-12T17:04:03.790Z,99051.31
2023-03-12T17:06:46.083Z,99054.84
2023-03-12T17:09:21.152Z,99059.41
2023-03-12T17:12:05.159Z,99063.69
2023-03-12T17:14:42.777Z,99080.88
2023-03-12T17:17:35.631Z,99078.09
2023-03-12T17:20:10.308Z,99082.53
2023-03-12T17:23:00.562Z,99087.59
2023-03-12T17:25:45.421Z,99099.97
2023-03-12T17:28:28.697Z,99103.28
2023-03-12T17:31:34.132Z,99104.00
2023-03-12T17:34:17.946Z,99110.00
2023-03-12T17:37:05.430Z,99115.19
2023-03-12T17:40:10.405Z,99116.34
2023-03-12T17:43:16.327Z,99120.69
2023-03-12T17:45:58.765Z,99122.88
2023-03-12T17:48:45.017Z,99128.06
2023-03-12T17:51:25.493Z,99115.94
2023-03-12T17:54:22.314Z,99125.34
2023-03-12T17:57:02.683Z,99126.06
2023-03-12T17:59:52.349Z,99125.97
2023-03-12T18:02:39.835Z,99128.66
2023-03-12T18:05:14.573Z,99127.44
2023-03-12T18:08:10.731Z,99126.84
2023-03-12T18:10:52.713Z,99132.94
2023-03-12T18:13:33.406Z,99125.25
2023-03-12T18:16:15.846Z,99128.69
2023-03-12T18:18:46.689Z,99139.97
2023-03-12T18:21:21.854Z,99141.75
2023-03-12T18:24:19.610Z,99137.59
2023-03-12T18:27:06.580Z,99136.78
2023-03-12T18:29:59.796Z,99132.72
2023-03-12T18:32:49.084Z,99131.38
2023-03-12T18:35:23.106Z,99124.63
2023-03-12T18:38:14.424Z,99125.38
2023-03-12T18:40:57.000Z,99123.91
2023-03-12T18:43:39.721Z,99126.72
2023-03-12T18:46:13.349Z,99128.34
2023-03-12T18:49:12.778Z,99129.31
2023-03-12T18:51:56.277Z,99120.72
2023-03-12T18:54:39.481Z,99126.91
2023-03-12T18:57:23.100Z,99120.56
2023-03-12T19:00:13.552Z,99125.31
2023-03-12T19:02:52.121Z,99124.72
2023-03-12T19:05:42.109Z,99132.78
2023-03-12T19:08:23.948Z,99127.59
2023-03-12T19:11:11.243Z,99133.69
2023-03-12T19:14:04.999Z,99122.81
2023-03-12T19:16:38.024Z,99140.72
2023-03-12T19:19:20.687Z,99141.47
2023-03-12T19:22:07.384Z,99143.22
2023-03-12T19:24:54.355Z,99143.88
2023-03-12T19:27:37.411Z,99151.66
2023-03-12T19:30:10.723Z,99140.56
2023-03-12T19:33:09.299Z,99139.31
2023-03-12T19:36:14.481Z,99138.78
2023-03-12T19:38:57.220Z,99140.66
2023-03-12T19:41:43.807Z,99144.19
2023-03-12T19:44:40.479Z,99136.06
2023-03-12T19:47:27.135Z,99143.94
2023-03-12T19:50:19.806Z,99144.88
2023-03-12T19:52:52.168Z,99148.78
2023-03-12T19:55:39.882Z,99145.16
2023-03-12T19:58:30.156Z,99139.59
2023-03-12T20:01:12.177Z,99141.16
2023-03-12T20:04:13.988Z,99124.25
2023-03-12T20:06:57.359Z,99143.53
2023-03-12T20:10:14.284Z,99146.03
2023-03-12T20:13:04.307Z,99144.91
2023-03-12T20:16:07.375Z,99143.16
2023-03-12T20:18:45.632Z,99142.09
2023-03-12T20:21:16.068Z,99138.25
2023-03-12T20:23:56.646Z,99138.25
2023-03-12T20:26:45.679Z,99145.13
2023-03-12T20:29:42.679Z,99134.69
2023-03-12T20:32:34.438Z,99131.22
2023-03-12T20:35:25.798Z,99128.84
2023-03-12T20:37:56.265Z,99127.91
2023-03-12T20:40:50.332Z,99135.69
2023-03-12T20:43:58.863Z,99127.59
2023-03-12T20:46:45.366Z,99120.97
2023-03-12T20:49:20.626Z,99123.56
2023-03-12T20:52:10.934Z,99113.59
2023-03-12T20:54:44.681Z,99101.34
2023-03-12T20:57:28.774Z,99112.25
2023-03-12T21:00:43.157Z,99112.25
2023-03-12T21:03:26.535Z,99108.63
2023-03-12T21:06:23.006Z,99112.78
2023-03-12T21:09:02.285Z,99119.41
2023-03-12T21:11:44.600Z,99118.28
2023-03-12T21:14:23.112Z,99085.94
2023-03-12T21:17:30.889Z,99100.75
2023-03-12T21:20:24.116Z,99091.13
2023-03-12T21:23:13.665Z,99090.31
2023-03-12T21:26:01.881Z,99084.50
2023-03-12T21:28:39.280Z,99088.94
2023-03-12T21:31:19.615Z,99090.84
2023-03-12T21:34:38.644Z,99097.56
2023-03-12T21:37:26.994Z,99089.59
2023-03-12T21:40:15.063Z,99092.28
2023-03-12T21:42:48.720Z,99090.53
2023-03-12T21:45:42.702Z,99090.63
2023-03-12T21:48:39.329Z,99091.53
2023-03-12T21:51:43.078Z,99080.88
2023-03-12T21:54:16.982Z,99069.28
2023-03-12T21:56:53.013Z,99073.41
2023-03-12T21:59:43.604Z,99067.38
2023-03-12T22:02:15.592Z,99070.91
2023-03-12T22:05:06.600Z,99055.78
2023-03-12T22:08:26.980Z,99061.06
2023-03-12T22:11:19.042Z,99057.09
2023-03-12T22:14:01.021Z,99049.53
2023-03-12T22:16:31.734Z,99049.63
2023-03-12T22:19:27.361Z,99046.41
2023-03-12T22:22:30.655Z,99040.31
2023-03-12T22:25:12.478Z,99030.88
2023-03-12T22:27:42.762Z,99027.28
2023-03-12T22:30:31.868Z,99022.94
2023-03-12T22:33:04.537Z,99017.75
2023-03-12T22:35:35.345Z,99019.22
2023-03-12T22:38:19.949Z,99024.19
2023-03-12T22:41:23.145Z,99023.06
2023-03-12T22:43:58.184Z,99020.28
2023-03-12T22:46:43.218Z,99023.38
2023-03-12T22:49:14.308Z,99026.69
2023-03-12T22:51:45.927Z,99020.50
2023-03-12T22:54:26.351Z,99016.66
2023-03-12T22:57:10.061Z,99016.44
2023-03-12T22:59:56.636Z,99013.44
2023-03-12T23:02:46.675Z,99001.00
2023-03-12T23:05:20.592Z,98995.63
2023-03-12T23:07:57.038Z,98993.38
2023-03-12T23:10:30.290Z,98994.78
2023-03-12T23:13:31.341Z,98992.00
2023-03-12T23:16:22.037Z,98992.72
2023-03-12T23:19:10.363Z,99014.91
2023-03-12T23:21:42.516Z,99001.00
2023-03-12T23:24:23.187Z,99010.41
2023-03-12T23:27:11.179Z,99010.94
2023-03-12T23:30:17.435Z,98995.41
2023-03-12T23:33:03.272Z,98991.88
2023-03-12T23:35:38.643Z,98992.50
2023-03-12T23:38:44.978Z,98998.41
2023-03-12T23:41:31.414Z,98990.63
2023-03-12T23:44:37.611Z,98990.72
2023-03-12T23:47:39.956Z,98977.25
2023-03-12T23:50:26.574Z,98975.50
2023-03-12T23:52:59.181Z,98969.28
2023-03-12T23:55:36.982Z,98959.41
2023-03-12T23:58:17.850Z,98962.00
